createdAt,value
2018-10-19T00:02:06.887Z,100991.51
2018-10-19T00:07:10.270Z,100986.17
2018-10-19T00:12:13.609Z,100985.00
2018-10-19T00:17:17.085Z,100977.31
2018-10-19T00:22:20.275Z,100978.17
2018-10-19T00:27:23.614Z,100978.65
2018-10-19T00:32:26.943Z,100975.16
2018-10-19T00:37:30.298Z,100985.20
2018-10-19T00:42:33.687Z,100982.21
2018-10-19T00:47:37.034Z,100977.89
2018-10-19T00:52:40.405Z,100975.73
2018-10-19T00:57:43.745Z,100972.41
2018-10-19T01:02:47.069Z,100971.27
2018-10-19T01:07:50.390Z,100967.45
2018-10-19T01:12:57.253Z,100966.80
2018-10-19T01:18:00.755Z,100962.28
2018-10-19T01:23:04.222Z,100970.98
2018-10-19T01:28:07.545Z,100963.18
2018-10-19T01:33:10.944Z,100976.20
2018-10-19T01:38:14.258Z,100972.87
2018-10-19T01:43:17.662Z,100967.73
2018-10-19T01:48:21.014Z,100977.57
2018-10-19T01:53:24.355Z,100977.77
2018-10-19T01:58:27.744Z,100982.12
2018-10-19T02:03:31.069Z,100988.63
2018-10-19T02:08:34.417Z,100995.64
2018-10-19T02:13:37.777Z,100994.19
2018-10-19T02:18:41.154Z,100994.50
2018-10-19T02:23:44.526Z,100997.48
2018-10-19T02:28:47.855Z,100996.86
2018-10-19T02:33:51.178Z,101002.03
2018-10-19T02:38:54.572Z,101002.89
2018-10-19T02:43:58.182Z,101002.03
2018-10-19T02:49:01.536Z,101008.22
2018-10-19T02:54:05.377Z,101011.11
2018-10-19T02:59:08.812Z,101017.61
2018-10-19T03:04:12.180Z,101013.61
2018-10-19T03:09:15.741Z,101012.98
2018-10-19T03:14:18.948Z,101012.38
2018-10-19T03:19:22.266Z,101015.23
2018-10-19T03:24:25.694Z,101015.23
2018-10-19T03:29:29.040Z,101010.25
2018-10-19T03:34:32.395Z,101017.23
2018-10-19T03:39:35.694Z,101017.92
2018-10-19T03:44:39.062Z,101013.92
2018-10-19T03:49:42.384Z,101007.93
2018-10-19T03:54:45.729Z,101010.27
2018-10-19T03:59:49.063Z,101015.80
2018-10-19T04:04:52.435Z,101011.29
2018-10-19T04:09:55.778Z,101020.30
2018-10-19T04:14:59.130Z,101019.81
2018-10-19T04:20:02.461Z,101022.98
2018-10-19T04:25:06.632Z,101022.56
2018-10-19T04:30:09.962Z,101026.59
2018-10-19T04:35:13.311Z,101028.83
2018-10-19T04:40:20.874Z,101025.62
2018-10-19T04:45:24.251Z,101026.47
2018-10-19T04:50:27.604Z,101025.51
2018-10-19T04:55:30.915Z,101025.87
2018-10-19T05:00:34.217Z,101037.20
2018-10-19T05:05:37.524Z,101032.52
2018-10-19T05:10:40.843Z,101047.67
2018-10-19T05:15:44.347Z,101043.73
2018-10-19T05:20:47.715Z,101056.25
2018-10-19T05:25:51.037Z,101057.31
2018-10-19T05:30:54.378Z,101063.79
2018-10-19T05:35:57.694Z,101065.13
2018-10-19T05:41:01.124Z,101064.19
2018-10-19T05:46:04.429Z,101068.22
2018-10-19T05:51:07.955Z,101067.54
2018-10-19T05:56:11.768Z,101078.55
2018-10-19T06:01:15.120Z,101079.70
2018-10-19T06:06:18.665Z,101089.51
2018-10-19T06:11:23.445Z,101092.49
2018-10-19T06:16:27.213Z,101098.47
2018-10-19T06:21:30.855Z,101106.62
2018-10-19T06:26:34.227Z,101105.80
2018-10-19T06:31:37.507Z,101108.28
2018-10-19T06:36:40.831Z,101107.97
2018-10-19T06:41:44.155Z,101120.12
2018-10-19T06:46:47.604Z,101128.92
2018-10-19T06:51:50.888Z,101125.44
2018-10-19T06:56:54.218Z,101124.39
2018-10-19T07:01:57.602Z,101128.73
2018-10-19T07:07:00.982Z,101129.21
2018-10-19T07:12:04.388Z,101133.38
2018-10-19T07:17:07.778Z,101132.88
2018-10-19T07:22:11.184Z,101149.67
2018-10-19T07:27:14.558Z,101147.84
2018-10-19T07:32:17.909Z,101152.84
2018-10-19T07:37:21.231Z,101151.69
2018-10-19T07:42:24.778Z,101154.02
2018-10-19T07:47:28.072Z,101153.98
2018-10-19T07:52:31.438Z,101150.49
2018-10-19T07:57:34.773Z,101163.44
2018-10-19T08:02:38.167Z,101161.55
2018-10-19T08:07:41.581Z,101166.88
2018-10-19T08:12:44.928Z,101174.98
2018-10-19T08:17:48.275Z,101170.48
2018-10-19T08:22:51.635Z,101179.61
2018-10-19T08:27:54.953Z,101186.91
2018-10-19T08:32:58.298Z,101192.05
2018-10-19T08:38:01.678Z,101193.89
2018-10-19T08:43:05.326Z,101190.08
2018-10-19T08:48:08.629Z,101198.57
2018-10-19T08:53:12.011Z,101197.03
2018-10-19T08:58:15.328Z,101202.31
2018-10-19T09:03:18.654Z,101202.63
2018-10-19T09:08:22.084Z,101201.59
2018-10-19T09:13:25.438Z,101210.53
2018-10-19T09:18:29.084Z,101209.46
2018-10-19T09:23:34.560Z,101206.48
2018-10-19T09:28:38.885Z,101213.14
2018-10-19T09:33:42.953Z,101209.94
2018-10-19T09:38:46.776Z,101203.02
2018-10-19T09:43:52.174Z,101203.80
2018-10-19T09:48:56.342Z,101206.44
2018-10-19T09:54:03.568Z,101211.81
2018-10-19T09:59:09.176Z,101203.50
2018-10-19T10:04:13.160Z,101205.27
2018-10-19T10:09:20.128Z,101196.34
2018-10-19T10:14:24.126Z,101197.89
2018-10-19T10:19:31.444Z,101201.41
2018-10-19T10:24:35.154Z,101204.42
2018-10-19T10:29:39.714Z,101199.86
2018-10-19T10:51:11.414Z,101192.56
2018-10-19T10:56:14.984Z,101193.16
2018-10-19T11:01:18.490Z,101182.58
2018-10-19T11:06:21.818Z,101184.63
2018-10-19T11:11:25.347Z,101188.00
2018-10-19T11:16:29.673Z,101177.00
2018-10-19T11:21:33.251Z,101172.02
2018-10-19T11:26:36.688Z,101170.75
2018-10-19T11:31:40.132Z,101170.02
2018-10-19T11:36:43.569Z,101176.11
2018-10-19T11:41:47.014Z,101164.33
2018-10-19T11:46:50.328Z,101156.41
2018-10-19T11:51:53.870Z,101163.23
2018-10-19T11:56:57.349Z,101161.63
2018-10-19T12:02:00.666Z,101164.97
2018-10-19T12:07:04.446Z,101155.89
2018-10-19T12:12:07.925Z,101151.41
2018-10-19T12:17:11.335Z,101148.25
2018-10-19T12:22:14.694Z,101144.36
2018-10-19T12:27:18.222Z,101136.91
2018-10-19T12:32:21.631Z,101145.47
2018-10-19T12:37:25.073Z,101140.70
2018-10-19T12:42:28.578Z,101139.16
2018-10-19T12:47:38.882Z,101131.70
2018-10-19T12:52:42.303Z,101126.92
2018-10-19T12:57:45.600Z,101121.58
2018-10-19T13:02:48.946Z,101115.41
2018-10-19T13:07:52.308Z,101110.73
2018-10-19T13:12:55.625Z,101104.09
2018-10-19T13:17:59.067Z,101098.75
2018-10-19T13:23:02.396Z,101108.45
2018-10-19T13:28:06.125Z,101108.92
2018-10-19T13:33:10.794Z,101106.77
2018-10-19T13:38:14.179Z,101104.40
2018-10-19T13:43:17.564Z,101101.55
2018-10-19T13:48:21.814Z,101092.25
2018-10-19T13:53:25.264Z,101092.50
2018-10-19T13:58:28.829Z,101090.02
2018-10-19T14:03:32.202Z,101091.28
2018-10-19T14:08:35.530Z,101086.76
2018-10-19T14:13:39.203Z,101080.79
2018-10-19T14:18:42.587Z,101082.52
2018-10-19T14:23:46.025Z,101084.02
2018-10-19T14:28:49.418Z,101074.41
2018-10-19T14:33:53.853Z,101078.83
2018-10-19T14:38:57.321Z,101078.91
2018-10-19T14:44:00.640Z,101080.15
2018-10-19T14:49:04.101Z,101083.09
2018-10-19T14:54:07.358Z,101082.31
2018-10-19T14:59:10.823Z,101081.34
2018-10-19T15:04:14.858Z,101081.58
2018-10-19T15:09:18.354Z,101076.48
2018-10-19T15:14:22.010Z,101071.73
2018-10-19T15:19:25.431Z,101071.63
2018-10-19T15:24:28.770Z,101075.55
2018-10-19T15:29:32.224Z,101077.12
2018-10-19T15:34:35.499Z,101078.05
2018-10-19T15:39:38.867Z,101087.50
2018-10-19T15:44:42.322Z,101084.63
2018-10-19T15:49:45.667Z,101087.70
2018-10-19T15:54:49.084Z,101086.95
2018-10-19T15:59:52.511Z,101087.80
2018-10-19T16:04:56.023Z,101092.34
2018-10-19T16:09:59.684Z,101086.72
2018-10-19T16:15:03.747Z,101089.61
2018-10-19T16:20:09.356Z,101101.80
2018-10-19T16:25:13.013Z,101101.54
2018-10-19T16:30:16.494Z,101108.87
2018-10-19T16:35:20.189Z,101102.28
2018-10-19T16:40:23.750Z,101105.35
2018-10-19T16:45:27.076Z,101100.23
2018-10-19T16:50:30.397Z,101098.09
2018-10-19T16:55:33.756Z,101096.65
2018-10-19T17:00:37.104Z,101104.18
2018-10-19T17:05:40.438Z,101109.58
2018-10-19T17:10:43.839Z,101113.77
2018-10-19T17:15:47.250Z,101117.12
2018-10-19T17:20:50.612Z,101122.29
2018-10-19T17:25:53.935Z,101126.33
2018-10-19T17:30:57.518Z,101128.00
2018-10-19T17:36:01.132Z,101124.37
2018-10-19T17:41:04.775Z,101118.87
2018-10-19T17:46:08.136Z,101126.41
2018-10-19T17:51:11.589Z,101133.39
2018-10-19T17:56:14.919Z,101131.75
2018-10-19T18:01:19.636Z,101145.25
2018-10-19T18:06:23.039Z,101136.63
2018-10-19T18:11:26.549Z,101140.66
2018-10-19T18:16:29.977Z,101157.15
2018-10-19T18:21:33.537Z,101163.81
2018-10-19T18:26:36.891Z,101161.33
2018-10-19T18:31:40.337Z,101161.55
2018-10-19T18:36:43.825Z,101163.53
2018-10-19T18:41:47.577Z,101172.66
2018-10-19T18:46:51.160Z,101178.98
2018-10-19T18:51:54.597Z,101186.50
2018-10-19T18:56:58.028Z,101194.80
2018-10-19T19:02:01.385Z,101193.64
2018-10-19T19:07:04.720Z,101189.30
2018-10-19T19:12:08.075Z,101188.83
2018-10-19T19:17:11.469Z,101198.48
2018-10-19T19:22:14.900Z,101198.31
2018-10-19T19:27:18.240Z,101207.61
2018-10-19T19:32:21.766Z,101204.45
2018-10-19T19:37:25.150Z,101208.77
2018-10-19T19:42:33.775Z,101207.30
2018-10-19T19:47:42.414Z,101207.61
2018-10-19T19:52:45.703Z,101217.42
2018-10-19T19:57:49.021Z,101212.59
2018-10-19T20:02:52.669Z,101217.42
2018-10-19T20:07:55.942Z,101227.25
2018-10-19T20:12:59.245Z,101224.58
2018-10-19T20:18:03.212Z,101229.40
2018-10-19T20:23:07.145Z,101229.55
2018-10-19T20:28:10.638Z,101232.06
2018-10-19T20:33:13.938Z,101234.88
2018-10-19T20:38:17.351Z,101229.91
2018-10-19T20:43:20.858Z,101228.39
2018-10-19T20:48:24.164Z,101230.58
2018-10-19T20:53:27.456Z,101228.89
2018-10-19T20:58:30.815Z,101225.75
2018-10-19T21:03:34.108Z,101223.08
2018-10-19T21:08:37.467Z,101225.24
2018-10-19T21:13:40.814Z,101223.55
2018-10-19T21:18:44.085Z,101221.59
2018-10-19T21:23:47.386Z,101220.59
2018-10-19T21:28:50.770Z,101225.72
2018-10-19T21:33:54.178Z,101216.25
2018-10-19T21:38:57.609Z,101226.89
2018-10-19T21:44:01.055Z,101226.89
2018-10-19T21:49:04.364Z,101219.58
2018-10-19T21:54:07.741Z,101212.73
2018-10-19T21:59:11.673Z,101212.09
2018-10-19T22:04:15.072Z,101215.09
2018-10-19T22:09:18.552Z,101215.40
2018-10-19T22:14:21.897Z,101223.35
2018-10-19T22:19:25.193Z,101219.87
2018-10-19T22:24:28.659Z,101217.05
2018-10-19T22:29:32.048Z,101226.16
2018-10-19T22:34:35.392Z,101226.48
2018-10-19T22:39:38.780Z,101227.17
2018-10-19T22:44:42.116Z,101222.65
2018-10-19T22:49:45.451Z,101228.29
2018-10-19T22:54:48.754Z,101237.43
2018-10-19T22:59:52.119Z,101228.78
2018-10-19T23:04:55.452Z,101219.81
2018-10-19T23:09:58.793Z,101230.25
2018-10-19T23:15:02.458Z,101237.20
2018-10-19T23:20:07.930Z,101232.03
2018-10-19T23:25:11.304Z,101230.06
2018-10-19T23:30:14.615Z,101227.94
2018-10-19T23:35:18.260Z,101231.22
2018-10-19T23:40:21.851Z,101233.58
2018-10-19T23:45:25.379Z,101234.91
2018-10-19T23:50:28.809Z,101243.64
2018-10-19T23:55:32.220Z,101243.81
